Time;durP1;ratioP1;P1;durP2;ratioP2;P2;SDS_P1;SDS_P2;PMS_P1;PMS_P2;Temp;Humidity;BMP_temperature;BMP_pressure;BME280_temperature;BME280_humidity;BME280_pressure;Samples;Min_cycle;Max_cycle;Signal;HPM_P1;HPM_P2
2021/10/19 00:01:48;;;;;;;6.43;4.60;;;;;;;8.35;100.00;101533.03;4829422;29;20105;-81
2021/10/19 00:04:15;;;;;;;6.20;4.53;;;;;;;8.31;100.00;101533.84;4858481;29;20461;-81
2021/10/19 00:06:41;;;;;;;6.15;4.07;;;;;;;8.32;100.00;101535.59;4858792;29;20513;-81
2021/10/19 00:09:08;;;;;;;7.50;5.28;;;;;;;8.15;100.00;101532.03;4863179;29;20175;-80
2021/10/19 00:11:35;;;;;;;9.18;4.53;;;;;;;8.12;100.00;101521.50;4865399;29;20513;-81
2021/10/19 00:14:01;;;;;;;7.35;4.93;;;;;;;8.10;100.00;101510.09;4867536;29;20045;-81
2021/10/19 00:16:28;;;;;;;7.13;4.50;;;;;;;8.08;100.00;101511.84;4868775;29;20498;-81
2021/10/19 00:18:55;;;;;;;5.68;4.85;;;;;;;8.04;100.00;101504.81;4857282;29;20050;-81
2021/10/19 00:21:21;;;;;;;6.65;4.55;;;;;;;7.98;100.00;101504.78;4873666;29;20042;-80
2021/10/19 00:23:48;;;;;;;8.38;4.40;;;;;;;7.98;100.00;101503.03;4873020;29;20068;-80
2021/10/19 00:26:15;;;;;;;7.05;4.68;;;;;;;7.97;100.00;101514.44;4858663;29;20123;-80
2021/10/19 00:28:41;;;;;;;5.20;4.32;;;;;;;7.83;100.00;101516.16;4842099;29;20130;-80
2021/10/19 00:31:08;;;;;;;6.23;4.00;;;;;;;7.75;100.00;101507.34;4867224;29;20560;-81
2021/10/19 00:33:35;;;;;;;6.93;4.95;;;;;;;7.77;100.00;101490.69;4853649;29;20127;-80
2021/10/19 00:36:02;;;;;;;6.82;4.75;;;;;;;7.78;100.00;101470.50;4874399;29;20775;-80
2021/10/19 00:38:28;;;;;;;7.70;4.32;;;;;;;7.82;100.00;101481.06;4857144;29;20106;-80
2021/10/19 00:40:55;;;;;;;7.80;4.57;;;;;;;7.80;100.00;101476.66;4874232;29;20038;-80
2021/10/19 00:43:24;;;;;;;6.80;5.32;;;;;;;7.74;100.00;101469.63;4845075;29;20049;-80
2021/10/19 00:45:52;;;;;;;10.87;5.10;;;;;;;7.71;100.00;101472.22;4862767;29;20482;-81
2021/10/19 00:48:21;;;;;;;7.37;4.50;;;;;;;7.65;100.00;101468.69;4859846;29;20505;-81
2021/10/19 00:50:47;;;;;;;6.03;5.23;;;;;;;7.64;100.00;101457.28;4846148;29;20105;-81
2021/10/19 00:53:15;;;;;;;7.87;5.03;;;;;;;7.72;100.00;101455.56;4871369;29;20053;-81
2021/10/19 00:55:42;;;;;;;6.37;4.90;;;;;;;7.61;100.00;101452.91;4854522;29;20057;-81
2021/10/19 00:58:09;;;;;;;7.37;5.73;;;;;;;7.59;100.00;101459.94;4869780;29;20053;-80
2021/10/19 01:00:37;;;;;;;9.73;5.67;;;;;;;7.53;100.00;101459.00;4866567;29;20085;-81
2021/10/19 01:03:04;;;;;;;8.03;5.67;;;;;;;7.51;100.00;101460.75;4849117;29;20049;-80
2021/10/19 01:05:31;;;;;;;8.77;5.97;;;;;;;7.45;100.00;101452.84;4829719;29;20458;-81
2021/10/19 01:07:58;;;;;;;7.80;6.03;;;;;;;7.40;100.00;101462.44;4844827;29;20045;-81
2021/10/19 01:10:25;;;;;;;8.18;6.13;;;;;;;7.37;100.00;101465.94;4864876;29;20065;-81
2021/10/19 01:12:51;;;;;;;8.93;6.75;;;;;;;7.30;100.00;101466.75;4845417;29;20049;-81
2021/10/19 01:15:18;;;;;;;8.03;5.90;;;;;;;7.27;100.00;101470.25;4859025;29;20048;-80
2021/10/19 01:17:50;;;;;;;7.07;6.00;;;;;;;7.29;100.00;101457.13;4869382;29;20553;-81
2021/10/19 01:20:30;;;;;;;8.70;6.20;;;;;;;7.36;100.00;101455.41;4855734;29;20050;-80
2021/10/19 01:22:58;;;;;;;8.70;6.33;;;;;;;7.31;100.00;101460.63;4861152;29;20106;-80
2021/10/19 01:25:27;;;;;;;11.77;6.80;;;;;;;7.37;100.00;101465.94;4871543;29;20049;-81
2021/10/19 01:27:56;;;;;;;10.40;7.07;;;;;;;7.43;100.00;101459.84;4860036;29;20105;-80
2021/10/19 01:30:24;;;;;;;8.60;6.10;;;;;;;7.40;100.00;101458.09;4855553;29;20053;-80
2021/10/19 01:32:51;;;;;;;6.67;5.97;;;;;;;7.35;100.00;101465.06;4868497;29;20101;-80
2021/10/19 01:35:18;;;;;;;8.07;5.83;;;;;;;7.33;100.00;101464.19;4850630;29;20041;-80
2021/10/19 01:37:45;;;;;;;9.07;6.03;;;;;;;7.26;100.00;101463.25;4845452;29;20046;-80
2021/10/19 01:40:14;;;;;;;9.27;6.30;;;;;;;7.25;100.00;101458.00;4865064;29;20050;-81
2021/10/19 01:42:42;;;;;;;8.43;5.40;;;;;;;7.08;100.00;101447.38;4858243;29;20554;-81
2021/10/19 01:45:16;;;;;;;8.40;6.07;;;;;;;6.99;100.00;101426.31;4843553;29;20045;-81
2021/10/19 01:47:44;;;;;;;9.03;5.97;;;;;;;7.02;100.00;101416.69;4859643;29;20053;-81
2021/10/19 01:50:12;;;;;;;8.47;5.47;;;;;;;7.13;100.00;101422.00;4866611;29;20049;-81
2021/10/19 01:52:39;;;;;;;9.10;6.10;;;;;;;7.17;100.00;101433.41;4865707;29;20432;-80
2021/10/19 01:55:08;;;;;;;10.20;6.07;;;;;;;7.17;100.00;101438.69;4840337;29;20095;-81
2021/10/19 01:57:35;;;;;;;6.23;4.47;;;;;;;7.11;100.00;101443.88;4825737;29;20052;-80
2021/10/19 02:00:04;;;;;;;9.97;5.57;;;;;;;7.05;100.00;101442.09;4824476;29;20099;-81
2021/10/19 02:02:31;;;;;;;8.87;5.80;;;;;;;7.06;100.00;101441.22;4826150;29;20065;-80
2021/10/19 02:04:57;;;;;;;6.80;5.57;;;;;;;7.08;100.00;101434.25;4839722;29;20097;-80
2021/10/19 02:07:24;;;;;;;9.73;6.77;;;;;;;7.09;100.00;101430.75;4840419;29;20069;-82
2021/10/19 02:09:51;;;;;;;9.70;6.40;;;;;;;7.14;100.00;101433.38;4847784;29;20549;-82
2021/10/19 02:12:18;;;;;;;8.73;6.30;;;;;;;7.14;100.00;101425.50;4844000;29;20061;-82
2021/10/19 02:14:44;;;;;;;8.93;6.23;;;;;;;7.15;100.00;101429.91;4843954;29;20113;-82
2021/10/19 02:17:11;;;;;;;9.30;6.50;;;;;;;7.15;100.00;101437.78;4859032;29;20595;-82
2021/10/19 02:19:38;;;;;;;7.73;5.77;;;;;;;7.14;100.00;101433.38;4858480;29;20053;-82
2021/10/19 02:22:04;;;;;;;8.00;6.20;;;;;;;7.15;100.00;101425.53;4872819;29;20050;-82
2021/10/19 02:24:31;;;;;;;11.17;7.23;;;;;;;7.21;100.00;101432.56;4846426;29;20045;-82
2021/10/19 02:26:58;;;;;;;10.67;7.10;;;;;;;7.19;100.00;101421.16;4858904;29;20053;-82
2021/10/19 02:29:24;;;;;;;10.60;7.40;;;;;;;7.21;100.00;101420.28;4842413;29;20046;-82
2021/10/19 02:31:51;;;;;;;10.00;7.03;;;;;;;7.20;100.00;101420.28;4843295;29;20045;-82
2021/10/19 02:34:18;;;;;;;10.80;8.03;;;;;;;7.21;100.00;101409.78;4857930;29;20049;-82
2021/10/19 02:36:44;;;;;;;8.83;6.77;;;;;;;7.26;100.00;101410.69;4858778;29;20045;-82
2021/10/19 02:39:11;;;;;;;10.63;6.87;;;;;;;7.28;100.00;101416.81;4859336;29;20528;-82
2021/10/19 02:41:38;;;;;;;8.63;6.90;;;;;;;7.25;100.00;101405.44;4857596;29;20057;-82
2021/10/19 02:44:17;;;;;;;10.37;6.70;;;;;;;7.19;100.00;101390.50;4844467;29;20056;-85
2021/10/19 02:46:43;;;;;;;11.50;7.53;;;;;;;7.28;100.00;101395.78;4869624;29;20049;-82
2021/10/19 02:49:10;;;;;;;10.40;7.10;;;;;;;7.38;100.00;101398.47;4835016;29;20050;-83
2021/10/19 02:51:37;;;;;;;10.33;6.83;;;;;;;7.36;100.00;101382.69;4842670;29;20046;-82
2021/10/19 02:54:04;;;;;;;10.57;7.83;;;;;;;7.37;100.00;101394.09;4859811;29;20056;-82
2021/10/19 02:56:31;;;;;;;10.00;6.90;;;;;;;7.40;100.00;101389.75;4813941;29;20042;-83
2021/10/19 02:58:57;;;;;;;12.23;8.30;;;;;;;7.35;100.00;101394.09;4842669;29;20054;-82
2021/10/19 03:01:24;;;;;;;11.87;7.40;;;;;;;7.39;100.00;101389.69;4844673;29;20065;-83
2021/10/19 03:03:53;;;;;;;13.23;9.43;;;;;;;7.39;100.00;101384.44;4856461;29;20061;-83
2021/10/19 03:06:20;;;;;;;14.10;9.03;;;;;;;7.39;100.00;101376.56;4844103;29;20046;-83
2021/10/19 03:08:47;;;;;;;12.60;9.40;;;;;;;7.39;100.00;101376.56;4830437;29;20102;-82
2021/10/19 03:11:15;;;;;;;15.23;9.97;;;;;;;7.33;100.00;101367.78;4830553;29;20105;-83
2021/10/19 03:13:45;;;;;;;14.57;10.00;;;;;;;7.34;100.00;101371.31;4847466;29;20645;-83
2021/10/19 03:16:15;;;;;;;14.73;10.37;;;;;;;7.33;100.00;101357.28;4847702;29;20110;-82
2021/10/19 03:18:42;;;;;;;15.97;9.63;;;;;;;7.38;100.00;101359.91;4844584;29;20111;-83
2021/10/19 03:21:09;;;;;;;14.87;11.33;;;;;;;7.44;100.00;101346.78;4832360;29;20077;-82
2021/10/19 03:23:36;;;;;;;17.13;11.27;;;;;;;7.48;100.00;101345.94;4831422;29;20049;-82
2021/10/19 03:26:03;;;;;;;14.00;9.63;;;;;;;7.52;100.00;101342.44;4846290;29;20113;-82
2021/10/19 03:28:30;;;;;;;15.47;10.13;;;;;;;7.47;100.00;101353.81;4858636;29;20061;-83
2021/10/19 03:30:57;;;;;;;16.80;11.37;;;;;;;7.48;100.00;101350.31;4847117;29;20054;-83
2021/10/19 03:33:25;;;;;;;16.20;11.13;;;;;;;7.47;100.00;101344.16;4845523;29;20042;-81
2021/10/19 03:35:52;;;;;;;15.53;11.43;;;;;;;7.46;100.00;101344.16;4845873;29;20038;-81
2021/10/19 03:38:19;;;;;;;19.77;12.60;;;;;;;7.51;100.00;101359.09;4843944;29;20111;-81
2021/10/19 03:40:47;;;;;;;16.43;10.33;;;;;;;7.49;100.00;101379.25;4846773;29;20467;-81
2021/10/19 03:43:14;;;;;;;15.93;11.67;;;;;;;7.46;100.00;101375.72;4861419;29;20046;-81
2021/10/19 03:45:41;;;;;;;16.10;11.57;;;;;;;7.43;100.00;101380.97;4846381;29;20072;-81
2021/10/19 03:48:07;;;;;;;16.90;10.70;;;;;;;7.41;100.00;101372.22;4813709;29;20053;-81
2021/10/19 03:50:34;;;;;;;15.63;12.83;;;;;;;7.44;100.00;101369.59;4829458;29;20049;-81
2021/10/19 03:53:01;;;;;;;14.63;10.70;;;;;;;7.43;100.00;101375.72;4831387;29;20121;-81
2021/10/19 03:55:28;;;;;;;14.90;9.30;;;;;;;7.41;100.00;101374.84;4832351;29;20051;-81
2021/10/19 03:57:54;;;;;;;12.70;8.23;;;;;;;7.40;100.00;101373.06;4830167;29;20046;-81
2021/10/19 04:00:21;;;;;;;11.30;8.60;;;;;;;7.33;100.00;101380.94;4842271;29;20050;-82
2021/10/19 04:02:48;;;;;;;12.97;8.07;;;;;;;7.31;100.00;101379.16;4845865;29;20452;-82
2021/10/19 04:05:15;;;;;;;14.17;8.40;;;;;;;7.30;100.00;101383.53;4844920;29;20046;-81
2021/10/19 04:07:45;;;;;;;11.47;8.03;;;;;;;7.27;100.00;101380.03;4827601;29;20049;-81
2021/10/19 04:10:14;;;;;;;10.60;7.33;;;;;;;7.24;100.00;101377.41;4829428;29;20210;-81
2021/10/19 04:12:41;;;;;;;11.67;7.73;;;;;;;7.21;100.00;101383.50;4814821;29;20486;-82
2021/10/19 04:15:09;;;;;;;12.00;8.50;;;;;;;7.19;100.00;101380.00;4840294;29;20506;-82
2021/10/19 04:17:35;;;;;;;11.00;8.13;;;;;;;7.18;100.00;101383.50;4828659;29;20051;-81
2021/10/19 04:20:03;;;;;;;11.50;7.90;;;;;;;7.21;100.00;101380.88;4828452;29;20053;-81
2021/10/19 04:22:30;;;;;;;11.47;8.00;;;;;;;7.13;100.00;101381.69;4847330;29;20050;-82
2021/10/19 04:24:58;;;;;;;10.67;7.40;;;;;;;7.11;100.00;101371.19;4862051;29;20269;-81
2021/10/19 04:27:25;;;;;;;9.57;7.90;;;;;;;7.12;100.00;101361.56;4849077;29;20042;-81
2021/10/19 04:29:52;;;;;;;13.43;7.87;;;;;;;7.12;100.00;101358.94;4833629;29;20444;-81
2021/10/19 04:32:19;;;;;;;12.20;7.87;;;;;;;7.11;100.00;101351.91;4863622;29;20050;-81
2021/10/19 04:34:45;;;;;;;15.60;9.93;;;;;;;7.15;100.00;101351.06;4847422;29;20062;-81
2021/10/19 04:37:12;;;;;;;16.20;10.83;;;;;;;7.15;100.00;101351.94;4833326;29;20459;-81
2021/10/19 04:39:39;;;;;;;16.33;11.03;;;;;;;7.14;100.00;101338.78;4831024;29;20057;-82
2021/10/19 04:42:05;;;;;;;15.37;10.70;;;;;;;7.11;100.00;101337.03;4848450;29;20051;-81
2021/10/19 04:44:32;;;;;;;15.60;10.97;;;;;;;7.12;100.00;101335.28;4832367;29;20051;-81
2021/10/19 04:46:59;;;;;;;17.50;11.80;;;;;;;7.09;100.00;101328.28;4847217;29;20058;-81
2021/10/19 04:49:26;;;;;;;18.20;12.30;;;;;;;7.11;100.00;101329.16;4844981;29;20107;-81
2021/10/19 04:51:52;;;;;;;17.27;11.43;;;;;;;7.10;100.00;101323.88;4829387;29;20053;-81
2021/10/19 04:54:19;;;;;;;16.87;11.77;;;;;;;7.11;100.00;101317.75;4842221;29;20834;-81
2021/10/19 04:56:45;;;;;;;19.67;13.03;;;;;;;7.11;100.00;101316.00;4827843;29;20270;-82
2021/10/19 04:59:12;;;;;;;17.37;11.73;;;;;;;7.13;100.00;101311.63;4858022;29;20081;-81
2021/10/19 05:01:39;;;;;;;20.63;13.77;;;;;;;7.08;100.00;101312.50;4841756;29;20042;-81
2021/10/19 05:04:07;;;;;;;18.90;12.30;;;;;;;7.08;100.00;101310.75;4855868;29;20051;-80
2021/10/19 05:06:33;;;;;;;21.37;13.53;;;;;;;7.19;100.00;101314.28;4843505;29;20102;-82
2021/10/19 05:09:00;;;;;;;21.80;13.67;;;;;;;7.13;100.00;101318.63;4841859;29;20046;-82
2021/10/19 05:11:27;;;;;;;18.40;11.93;;;;;;;7.07;100.00;101321.25;4831689;29;20510;-82
2021/10/19 05:13:53;;;;;;;22.30;14.03;;;;;;;7.12;100.00;101324.75;4829046;29;20577;-82
2021/10/19 05:16:20;;;;;;;17.80;11.90;;;;;;;7.07;100.00;101329.16;4846655;29;20046;-82
2021/10/19 05:18:47;;;;;;;19.80;13.40;;;;;;;7.04;100.00;101327.34;4844752;29;20050;-82
2021/10/19 05:21:14;;;;;;;20.40;13.10;;;;;;;7.04;100.00;101329.97;4832815;29;20061;-82
2021/10/19 05:23:40;;;;;;;20.63;12.37;;;;;;;7.03;100.00;101315.09;4827844;29;20054;-82
2021/10/19 05:26:09;;;;;;;19.50;13.23;;;;;;;7.12;100.00;101317.75;4860538;29;20073;-82
2021/10/19 05:28:35;;;;;;;19.00;12.03;;;;;;;7.11;100.00;101309.88;4832061;29;20072;-82
2021/10/19 05:31:03;;;;;;;15.83;10.90;;;;;;;7.13;100.00;101301.13;4845324;29;20058;-82
2021/10/19 05:33:30;;;;;;;15.30;10.80;;;;;;;7.13;100.00;101300.25;4852142;29;20664;-82
2021/10/19 05:35:57;;;;;;;14.53;10.77;;;;;;;7.07;100.00;101303.75;4836175;29;20054;-83
2021/10/19 05:38:24;;;;;;;15.53;10.93;;;;;;;7.08;100.00;101312.50;4860211;29;20058;-83
2021/10/19 05:40:50;;;;;;;16.67;10.50;;;;;;;7.02;100.00;101321.22;4839690;29;20051;-81
2021/10/19 05:43:17;;;;;;;15.67;10.90;;;;;;;7.01;100.00;101322.97;4838790;29;20058;-82
2021/10/19 05:45:44;;;;;;;19.23;12.70;;;;;;;7.03;100.00;101320.34;4868534;29;20043;-82
2021/10/19 05:48:10;;;;;;;20.63;12.50;;;;;;;7.03;100.00;101323.84;4868928;29;20057;-82
2021/10/19 05:50:38;;;;;;;19.03;12.57;;;;;;;7.11;100.00;101323.88;4826736;29;20061;-83
2021/10/19 05:53:05;;;;;;;19.80;12.13;;;;;;;7.09;100.00;101330.03;4841976;29;20074;-82
2021/10/19 05:55:31;;;;;;;21.00;13.40;;;;;;;7.10;100.00;101332.66;4836944;29;20050;-82
2021/10/19 05:57:59;;;;;;;19.47;11.83;;;;;;;7.14;100.00;101339.66;4823421;29;20448;-82
2021/10/19 06:00:46;;;;;;;16.10;11.27;;;;;;;7.02;100.00;101335.25;4847000;29;20042;-85
2021/10/19 06:03:13;;;;;;;15.77;11.07;;;;;;;7.08;100.00;101334.41;4824112;29;20114;-85
2021/10/19 06:05:41;;;;;;;14.80;9.73;;;;;;;7.12;100.00;101333.53;4852649;29;20054;-85
2021/10/19 06:08:07;;;;;;;14.07;10.03;;;;;;;7.10;100.00;101326.53;4832715;29;20383;-86
2021/10/19 06:10:36;;;;;;;12.53;8.60;;;;;;;7.16;100.00;101326.56;4819867;29;20091;-85
2021/10/19 06:13:03;;;;;;;15.47;10.33;;;;;;;7.15;100.00;101323.03;4848067;29;20053;-85
2021/10/19 06:15:30;;;;;;;15.07;10.80;;;;;;;7.19;100.00;101316.91;4830998;29;20269;-85
2021/10/19 06:17:56;;;;;;;15.10;10.03;;;;;;;7.11;100.00;101316.00;4825374;29;20042;-86
2021/10/19 06:20:23;;;;;;;15.77;10.93;;;;;;;7.18;100.00;101330.06;4827192;29;20042;-84
2021/10/19 06:22:50;;;;;;;14.73;10.73;;;;;;;7.18;100.00;101344.06;4857742;29;20054;-82
2021/10/19 06:25:17;;;;;;;16.80;11.47;;;;;;;7.15;100.00;101348.44;4828162;29;20530;-85
2021/10/19 06:27:44;;;;;;;17.60;11.40;;;;;;;7.15;100.00;101349.31;4830130;29;20080;-86
2021/10/19 06:30:11;;;;;;;17.97;11.87;;;;;;;7.20;100.00;101344.94;4828030;29;20091;-86
2021/10/19 06:32:40;;;;;;;17.27;11.30;;;;;;;7.25;100.00;101342.34;4843717;29;20046;-85
2021/10/19 06:35:09;;;;;;;17.13;11.47;;;;;;;7.30;100.00;101330.97;4849755;29;21576;-84
2021/10/19 06:37:36;;;;;;;21.70;12.47;;;;;;;7.40;100.00;101333.63;4835689;29;20140;-86
2021/10/19 06:40:07;;;;;;;17.17;11.53;;;;;;;7.44;100.00;101335.41;4856309;29;20114;-85
2021/10/19 06:42:35;;;;;;;44.87;26.60;;;;;;;7.48;100.00;101330.19;4844611;29;20057;-84
2021/10/19 06:45:03;;;;;;;33.17;19.63;;;;;;;7.52;100.00;101329.28;4841074;29;20525;-85
2021/10/19 06:47:32;;;;;;;29.43;18.40;;;;;;;7.56;100.00;101327.53;4842860;29;20114;-84
2021/10/19 06:50:00;;;;;;;28.47;17.93;;;;;;;7.61;100.00;101320.56;4855315;29;20046;-85
2021/10/19 06:52:29;;;;;;;28.67;16.65;;;;;;;7.69;100.00;101321.44;4826402;29;20046;-86
2021/10/19 06:54:57;;;;;;;25.10;16.43;;;;;;;7.73;100.00;101319.69;4841671;29;20075;-84
2021/10/19 06:57:27;;;;;;;23.57;16.40;;;;;;;7.81;100.00;101312.69;4827817;29;20458;-85
2021/10/19 06:59:53;;;;;;;24.92;16.45;;;;;;;7.86;100.00;101316.22;4842411;29;20098;-84
2021/10/19 07:02:20;;;;;;;20.27;13.15;;;;;;;7.89;100.00;101306.56;4830274;29;20484;-84
2021/10/19 07:04:47;;;;;;;20.85;14.15;;;;;;;7.96;100.00;101310.06;4829010;29;20058;-89
2021/10/19 07:07:14;;;;;;;21.92;14.02;;;;;;;8.02;100.00;101310.09;4824890;29;20046;-82
2021/10/19 07:09:41;;;;;;;19.35;12.98;;;;;;;8.05;100.00;101302.19;4839305;29;20115;-85
2021/10/19 07:12:08;;;;;;;20.70;13.55;;;;;;;8.10;100.00;101308.34;4843013;29;20056;-85
2021/10/19 07:14:35;;;;;;;20.98;13.75;;;;;;;8.15;100.00;101303.94;4835067;29;20114;-85
2021/10/19 07:17:01;;;;;;;23.33;14.57;;;;;;;8.26;100.00;101300.44;4818784;29;20411;-84
2021/10/19 07:19:28;;;;;;;19.95;13.63;;;;;;;8.29;100.00;101305.69;4827579;29;20051;-85
2021/10/19 07:21:55;;;;;;;22.05;15.85;;;;;;;8.45;100.00;101302.19;4858463;29;20048;-85
2021/10/19 07:24:22;;;;;;;22.17;14.77;;;;;;;8.42;100.00;101313.63;4858083;29;20065;-82
2021/10/19 07:26:51;;;;;;;19.98;14.30;;;;;;;8.46;100.00;101314.47;4830643;29;20038;-82
2021/10/19 07:29:18;;;;;;;26.75;16.42;;;;;;;8.52;100.00;101314.47;4812258;29;20062;-84
2021/10/19 07:31:45;;;;;;;26.15;16.05;;;;;;;8.58;100.00;101316.22;4842340;29;20094;-84
2021/10/19 07:34:11;;;;;;;22.38;15.20;;;;;;;8.58;100.00;101310.97;4843488;29;20091;-83
2021/10/19 07:36:38;;;;;;;20.42;15.20;;;;;;;8.61;100.00;101301.28;4826010;29;20512;-83
2021/10/19 07:39:06;;;;;;;23.40;15.57;;;;;;;8.71;100.00;101288.97;4838613;29;20525;-83
2021/10/19 07:41:37;;;;;;;22.98;16.02;;;;;;;8.84;100.00;101295.97;4824220;29;20050;-83
2021/10/19 07:44:07;;;;;;;23.15;16.40;;;;;;;8.88;100.00;101295.06;4842388;29;20046;-83
2021/10/19 07:47:01;;;;;;;24.23;16.35;;;;;;;9.00;100.00;101287.13;4834804;29;20118;-81
2021/10/19 07:49:33;;;;;;;22.42;15.65;;;;;;;9.01;100.00;101286.25;4819124;29;20113;-81
2021/10/19 07:52:03;;;;;;;22.33;16.75;;;;;;;9.06;100.00;101282.69;4834206;29;20125;-81
2021/10/19 07:54:30;;;;;;;27.50;16.95;;;;;;;9.10;100.00;101287.09;4863447;29;20050;-83
2021/10/19 07:56:56;;;;;;;22.73;16.63;;;;;;;9.26;100.00;101281.72;4832743;29;20061;-83
2021/10/19 07:59:26;;;;;;;24.17;17.05;;;;;;;9.34;100.00;101279.06;4834275;29;20102;-83
2021/10/19 08:01:53;;;;;;;22.35;15.65;;;;;;;9.37;100.00;101264.97;4818782;29;20054;-83
2021/10/19 08:04:26;;;;;;;24.77;16.10;;;;;;;9.47;100.00;101254.34;4848267;29;20061;-83
2021/10/19 08:06:53;;;;;;;24.92;16.52;;;;;;;9.61;100.00;101261.31;4834538;29;20106;-83
2021/10/19 08:09:20;;;;;;;20.50;14.40;;;;;;;9.70;100.00;101254.19;4868307;29;20070;-83
2021/10/19 08:11:47;;;;;;;24.02;15.98;;;;;;;9.68;100.00;101249.81;4848726;29;20409;-83
2021/10/19 08:14:14;;;;;;;25.63;15.82;;;;;;;9.84;100.00;101244.41;4834654;29;20058;-83
2021/10/19 08:16:41;;;;;;;22.10;15.18;;;;;;;9.97;100.00;101245.19;4836373;29;20038;-82
2021/10/19 08:19:08;;;;;;;25.10;16.75;;;;;;;10.02;100.00;101245.16;4864647;29;20566;-82
2021/10/19 08:21:35;;;;;;;21.42;14.98;;;;;;;10.19;100.00;101247.63;4860140;29;20049;-83
2021/10/19 08:24:01;;;;;;;23.70;15.38;;;;;;;10.33;100.00;101251.03;4802186;29;20042;-82
2021/10/19 08:26:31;;;;;;;24.95;15.70;;;;;;;10.47;100.00;101246.47;4818773;29;20110;-84
2021/10/19 08:29:00;;;;;;;23.02;16.50;;;;;;;10.63;99.31;101261.28;4844588;29;20058;-82
2021/10/19 08:31:27;;;;;;;23.40;15.50;;;;;;;10.73;96.25;101259.41;4834136;29;20053;-83
2021/10/19 08:33:55;;;;;;;20.95;15.23;;;;;;;10.78;97.03;101256.72;4831230;29;20468;-82
2021/10/19 08:36:22;;;;;;;20.73;13.77;;;;;;;10.67;98.97;101262.97;4849115;29;20149;-83
2021/10/19 08:38:49;;;;;;;22.08;15.20;;;;;;;10.75;97.64;101267.31;4854200;29;20125;-83
2021/10/19 08:41:18;;;;;;;22.55;13.98;;;;;;;10.68;98.57;101266.53;4832447;29;20050;-82
2021/10/19 08:43:52;;;;;;;22.48;14.30;;;;;;;10.75;97.56;101269.94;4844781;29;20038;-83
2021/10/19 08:46:19;;;;;;;23.85;14.68;;;;;;;10.84;98.37;101259.28;4841640;29;20054;-83
2021/10/19 14:03:27;;;;;;;11.82;7.53;;;;;;;14.48;85.52;100963.38;4932526;29;20043;-82
2021/10/19 14:05:55;;;;;;;10.25;7.65;;;;;;;14.55;86.01;100962.25;4883698;29;20447;-83
2021/10/19 14:08:21;;;;;;;9.43;7.55;;;;;;;14.54;85.98;100960.50;4887219;29;20043;-82
2021/10/19 14:10:48;;;;;;;11.00;7.80;;;;;;;14.48;86.57;100958.91;4892811;29;20044;-82
2021/10/19 14:13:15;;;;;;;8.70;6.47;;;;;;;14.45;88.05;100960.75;4920320;29;20043;-81
2021/10/19 14:15:42;;;;;;;9.88;8.00;;;;;;;14.45;89.33;100951.03;4894524;29;20059;-83
2021/10/19 14:18:09;;;;;;;9.45;7.43;;;;;;;14.48;88.74;100953.59;4905627;29;20111;-82
2021/10/19 14:20:35;;;;;;;12.38;8.35;;;;;;;14.47;89.15;100954.53;4932999;29;20742;-84
2021/10/19 14:23:07;;;;;;;11.25;8.57;;;;;;;14.52;87.99;100957.88;4914526;29;20058;-79
2021/10/19 14:25:35;;;;;;;9.80;7.25;;;;;;;14.46;87.94;100959.88;4899727;29;20043;-82
2021/10/19 14:28:02;;;;;;;9.90;7.00;;;;;;;14.43;89.28;100958.16;4903852;29;20071;-81
2021/10/19 14:30:28;;;;;;;7.95;6.38;;;;;;;14.40;90.08;100954.72;4915986;29;20040;-82
2021/10/19 14:32:55;;;;;;;11.63;7.82;;;;;;;14.42;90.68;100948.44;4916100;29;20423;-84
2021/10/19 14:35:22;;;;;;;12.75;8.52;;;;;;;14.49;90.32;100942.03;4901511;29;20095;-80
2021/10/19 14:37:48;;;;;;;12.20;7.95;;;;;;;14.43;91.51;100958.16;4908178;29;20066;-80
2021/10/19 14:40:16;;;;;;;10.20;7.32;;;;;;;14.37;91.83;100951.22;4887326;29;20043;-81
2021/10/19 14:42:43;;;;;;;9.63;6.75;;;;;;;14.34;90.13;100947.81;4926892;29;20039;-81
2021/10/19 14:45:10;;;;;;;8.55;6.32;;;;;;;14.33;90.37;100954.03;4890863;29;20055;-83
2021/10/19 14:47:37;;;;;;;9.55;6.30;;;;;;;14.30;90.34;100944.38;4898271;29;20487;-81
2021/10/19 14:50:04;;;;;;;8.07;6.05;;;;;;;14.30;90.57;100935.56;4916679;23;20111;-82
2021/10/19 14:52:31;;;;;;;8.45;6.60;;;;;;;14.28;91.70;100935.56;4950005;28;20051;-81
2021/10/19 14:54:58;;;;;;;8.32;6.07;;;;;;;14.27;93.34;100930.31;4958964;28;20042;-82
2021/10/19 14:57:24;;;;;;;8.50;6.10;;;;;;;14.25;93.68;100929.50;4943869;28;20045;-81
2021/10/19 14:59:51;;;;;;;6.82;6.13;;;;;;;14.22;93.99;100921.63;4954343;28;20089;-81
2021/10/19 15:02:18;;;;;;;7.93;6.80;;;;;;;14.20;94.71;100923.44;4924845;28;20477;-82
2021/10/19 15:04:44;;;;;;;9.15;6.13;;;;;;;14.17;95.44;100923.53;4954344;28;20121;-82
2021/10/19 15:07:11;;;;;;;8.40;6.55;;;;;;;14.13;96.24;100913.94;4962961;28;20039;-81
2021/10/19 15:09:38;;;;;;;9.48;6.82;;;;;;;14.11;96.33;100916.63;4944212;28;20113;-82
2021/10/19 15:12:05;;;;;;;9.50;6.22;;;;;;;14.08;96.54;100917.59;4944210;28;20519;-81
2021/10/19 15:14:31;;;;;;;8.80;6.57;;;;;;;14.05;97.12;100915.06;4947199;28;20047;-81
2021/10/19 15:16:58;;;;;;;8.30;6.40;;;;;;;14.02;97.87;100915.13;4936392;29;20053;-82
2021/10/19 15:19:25;;;;;;;8.20;6.68;;;;;;;13.96;98.44;100910.03;4945001;28;20094;-82
2021/10/19 15:21:52;;;;;;;7.63;5.97;;;;;;;13.92;99.51;100900.38;4946750;28;20065;-82
2021/10/19 15:24:19;;;;;;;7.68;6.60;;;;;;;13.88;99.65;100904.06;4932582;29;20043;-82
2021/10/19 15:26:46;;;;;;;8.88;6.35;;;;;;;13.83;100.00;100898.00;4941327;28;20042;-81
2021/10/19 15:29:13;;;;;;;8.80;6.38;;;;;;;13.83;100.00;100898.00;4954246;28;20046;-81
2021/10/19 15:31:40;;;;;;;8.38;6.60;;;;;;;13.83;99.30;100890.03;4931339;28;20046;-81
2021/10/19 15:34:08;;;;;;;7.85;6.28;;;;;;;13.76;99.97;100881.38;4956769;28;20124;-80
2021/10/19 15:36:34;;;;;;;10.23;7.10;;;;;;;13.71;100.00;100883.34;4940313;28;20039;-80
2021/10/19 15:39:01;;;;;;;11.80;8.27;;;;;;;13.74;100.00;100875.25;4970093;28;20477;-81
2021/10/19 15:41:34;;;;;;;9.77;7.30;;;;;;;13.62;100.00;100873.00;4911628;29;20607;-81
2021/10/19 15:44:01;;;;;;;10.27;7.32;;;;;;;13.54;100.00;100861.72;4919187;29;20102;-82
2021/10/19 15:46:47;;;;;;;8.75;7.03;;;;;;;13.52;100.00;100856.44;4961378;28;20039;-82
2021/10/19 15:49:14;;;;;;;10.35;7.47;;;;;;;13.42;100.00;100854.97;4950862;28;20058;-82
2021/10/19 15:51:41;;;;;;;10.00;6.78;;;;;;;13.38;100.00;100845.38;4915115;29;20114;-82
2021/10/19 15:54:08;;;;;;;9.48;6.78;;;;;;;13.38;100.00;100850.69;4935380;29;20047;-82
2021/10/19 15:56:36;;;;;;;10.55;6.97;;;;;;;13.31;100.00;100842.94;4935686;29;20525;-82
2021/10/19 15:59:07;;;;;;;9.40;6.50;;;;;;;13.25;100.00;100854.59;4935431;29;20798;-81
2021/10/19 16:01:34;;;;;;;9.35;7.80;;;;;;;13.23;100.00;100859.06;4935838;29;20047;-81
2021/10/19 16:04:08;;;;;;;8.57;6.53;;;;;;;13.17;100.00;100848.59;4962136;28;20097;-81
2021/10/19 16:06:34;;;;;;;9.77;7.57;;;;;;;13.12;100.00;100848.75;4958307;28;20050;-83
2021/10/19 16:09:02;;;;;;;8.50;7.35;;;;;;;13.17;100.00;100848.59;4938421;28;20097;-81
2021/10/19 16:11:29;;;;;;;9.43;6.68;;;;;;;13.24;100.00;100860.81;4938669;28;20047;-82
2021/10/19 16:13:55;;;;;;;8.73;6.45;;;;;;;13.16;100.00;100855.69;4925405;28;20035;-82
2021/10/19 16:16:22;;;;;;;8.98;6.68;;;;;;;13.13;100.00;100860.22;4957985;28;20054;-82
2021/10/19 16:18:49;;;;;;;7.13;6.07;;;;;;;13.09;100.00;100859.41;4954544;28;20038;-81
2021/10/19 16:21:15;;;;;;;7.25;6.28;;;;;;;13.09;100.00;100859.41;4933425;29;20043;-82
2021/10/19 16:23:42;;;;;;;7.55;6.10;;;;;;;13.16;100.00;100863.63;4966912;28;21024;-82
2021/10/19 16:26:09;;;;;;;6.80;5.50;;;;;;;13.11;100.00;100859.38;4926006;28;20061;-82
2021/10/19 16:28:36;;;;;;;7.57;5.90;;;;;;;13.14;100.00;100854.88;4956003;28;20070;-81
2021/10/19 16:31:03;;;;;;;8.65;5.95;;;;;;;13.13;100.00;100861.09;4947331;28;20097;-81
2021/10/19 16:33:30;;;;;;;7.13;5.95;;;;;;;13.17;100.00;100851.25;4934906;28;20047;-81